sensor_id;sensor_type;location;lat;lon;timestamp;pressure;altitude;pressure_sealevel;temperature;humidity
32759;BME280;19125;52.360;9.974;2024-02-14T00:00:09;87407.84;;;-145.17;55.61
32759;BME280;19125;52.360;9.974;2024-02-14T00:02:39;87316.53;;;-145.17;55.78
32759;BME280;19125;52.360;9.974;2024-02-14T00:05:05;87403.88;;;-145.17;55.54
32759;BME280;19125;52.360;9.974;2024-02-14T00:07:31;87322.47;;;-145.17;55.96
32759;BME280;19125;52.360;9.974;2024-02-14T00:09:56;87378.06;;;-145.17;55.94
32759;BME280;19125;52.360;9.974;2024-02-14T00:12:22;87348.28;;;-145.17;56.03
32759;BME280;19125;52.360;9.974;2024-02-14T00:14:49;87354.25;;;-145.17;55.97
32759;BME280;19125;52.360;9.974;2024-02-14T00:17:15;87366.16;;;-145.17;55.82
32759;BME280;19125;52.360;9.974;2024-02-14T00:19:40;87372.09;;;-145.17;56.04
32759;BME280;19125;52.360;9.974;2024-02-14T00:22:05;87354.25;;;-145.17;55.76
32759;BME280;19125;52.360;9.974;2024-02-14T00:24:31;87348.28;;;-145.17;55.53
32759;BME280;19125;52.360;9.974;2024-02-14T00:26:57;87338.38;;;-145.17;55.88
32759;BME280;19125;52.360;9.974;2024-02-14T00:29:22;87344.31;;;-145.17;56.06
32759;BME280;19125;52.360;9.974;2024-02-14T00:31:49;87399.91;;;-145.17;56.02
32759;BME280;19125;52.360;9.974;2024-02-14T00:34:14;87417.75;;;-145.17;56.56
32759;BME280;19125;52.360;9.974;2024-02-14T00:36:40;87465.41;;;-145.17;56.47
32759;BME280;19125;52.360;9.974;2024-02-14T00:39:05;87401.88;;;-145.17;56.68
32759;BME280;19125;52.360;9.974;2024-02-14T00:41:34;87403.88;;;-145.17;56.48
32759;BME280;19125;52.360;9.974;2024-02-14T00:44:00;87425.69;;;-145.17;56.86
32759;BME280;19125;52.360;9.974;2024-02-14T00:46:25;87427.69;;;-145.17;56.96
32759;BME280;19125;52.360;9.974;2024-02-14T00:48:51;87457.47;;;-145.17;56.92
32759;BME280;19125;52.360;9.974;2024-02-14T00:51:16;87433.66;;;-145.17;57.24
32759;BME280;19125;52.360;9.974;2024-02-14T00:53:41;87449.53;;;-145.17;57.53
32759;BME280;19125;52.360;9.974;2024-02-14T00:56:07;87475.31;;;-145.17;57.39
32759;BME280;19125;52.360;9.974;2024-02-14T00:58:32;87483.28;;;-145.17;57.28
32759;BME280;19125;52.360;9.974;2024-02-14T01:00:58;87495.19;;;-145.17;57.38
32759;BME280;19125;52.360;9.974;2024-02-14T01:03:23;87509.06;;;-145.17;57.81
32759;BME280;19125;52.360;9.974;2024-02-14T01:05:48;87495.19;;;-145.17;57.49
32759;BME280;19125;52.360;9.974;2024-02-14T01:08:14;87520.97;;;-145.17;57.75
32759;BME280;19125;52.360;9.974;2024-02-14T01:10:40;87526.94;;;-145.17;57.84
32759;BME280;19125;52.360;9.974;2024-02-14T01:13:06;87536.88;;;-145.17;58.07
32759;BME280;19125;52.360;9.974;2024-02-14T01:15:31;87560.69;;;-145.17;58.12
32759;BME280;19125;52.360;9.974;2024-02-14T01:17:58;87556.72;;;-145.17;58.30
32759;BME280;19125;52.360;9.974;2024-02-14T01:20:24;87544.81;;;-145.17;58.17
32759;BME280;19125;52.360;9.974;2024-02-14T01:22:49;87584.50;;;-145.17;58.50
32759;BME280;19125;52.360;9.974;2024-02-14T01:25:14;87624.22;;;-145.17;58.78
32759;BME280;19125;52.360;9.974;2024-02-14T01:27:40;87584.50;;;-145.17;58.56
32759;BME280;19125;52.360;9.974;2024-02-14T01:30:07;87624.22;;;-145.17;58.71
32759;BME280;19125;52.360;9.974;2024-02-14T01:32:32;87632.16;;;-145.17;58.84
32759;BME280;19125;52.360;9.974;2024-02-14T01:34:57;87659.94;;;-145.17;59.01
32759;BME280;19125;52.360;9.974;2024-02-14T01:37:23;87699.63;;;-145.17;58.64
32759;BME280;19125;52.360;9.974;2024-02-14T01:39:49;87650.00;;;-145.17;59.06
32759;BME280;19125;52.360;9.974;2024-02-14T01:42:14;87648.03;;;-145.17;58.89
32759;BME280;19125;52.360;9.974;2024-02-14T01:44:39;87671.84;;;-145.17;59.02
32759;BME280;19125;52.360;9.974;2024-02-14T01:47:05;87630.16;;;-145.17;58.81
32759;BME280;19125;52.360;9.974;2024-02-14T01:49:32;87646.03;;;-145.17;58.77
32759;BME280;19125;52.360;9.974;2024-02-14T01:52:02;87636.13;;;-145.17;58.74
32759;BME280;19125;52.360;9.974;2024-02-14T01:54:29;87596.41;;;-145.17;58.78
32759;BME280;19125;52.360;9.974;2024-02-14T01:56:56;87572.59;;;-145.17;58.70
32759;BME280;19125;52.360;9.974;2024-02-14T01:59:23;87574.56;;;-145.17;58.59
32759;BME280;19125;52.360;9.974;2024-02-14T02:01:49;87548.78;;;-145.17;58.39
32759;BME280;19125;52.360;9.974;2024-02-14T02:04:14;87538.84;;;-145.17;58.37
32759;BME280;19125;52.360;9.974;2024-02-14T02:06:39;87570.59;;;-145.17;58.03
32759;BME280;19125;52.360;9.974;2024-02-14T02:09:06;87522.97;;;-145.17;57.75
32759;BME280;19125;52.360;9.974;2024-02-14T02:11:42;87556.72;;;-145.17;57.99
32759;BME280;19125;52.360;9.974;2024-02-14T02:14:10;87520.97;;;-145.17;58.10
32759;BME280;19125;52.360;9.974;2024-02-14T02:16:37;87540.84;;;-145.17;57.71
32759;BME280;19125;52.360;9.974;2024-02-14T02:19:03;87530.91;;;-145.17;57.77
32759;BME280;19125;52.360;9.974;2024-02-14T02:21:29;87491.22;;;-145.17;57.66
32759;BME280;19125;52.360;9.974;2024-02-14T02:23:54;87544.81;;;-145.17;57.75
32759;BME280;19125;52.360;9.974;2024-02-14T02:26:19;87499.16;;;-145.17;57.87
32759;BME280;19125;52.360;9.974;2024-02-14T02:28:45;87497.16;;;-145.17;57.88
32759;BME280;19125;52.360;9.974;2024-02-14T02:31:11;87513.03;;;-145.17;57.56
32759;BME280;19125;52.360;9.974;2024-02-14T02:33:36;87493.19;;;-145.17;57.74
32759;BME280;19125;52.360;9.974;2024-02-14T02:36:01;87479.28;;;-145.17;57.83
32759;BME280;19125;52.360;9.974;2024-02-14T02:38:27;87485.25;;;-145.17;58.21
32759;BME280;19125;52.360;9.974;2024-02-14T02:40:52;87499.16;;;-145.17;58.32
32759;BME280;19125;52.360;9.974;2024-02-14T02:43:17;87566.63;;;-145.17;58.36
32759;BME280;19125;52.360;9.974;2024-02-14T02:45:43;87560.69;;;-145.17;58.64
32759;BME280;19125;52.360;9.974;2024-02-14T02:48:09;87564.66;;;-145.17;58.97
32759;BME280;19125;52.360;9.974;2024-02-14T02:50:34;87612.28;;;-145.17;59.08
32759;BME280;19125;52.360;9.974;2024-02-14T02:53:00;87671.84;;;-145.17;59.12
32759;BME280;19125;52.360;9.974;2024-02-14T02:55:25;87655.97;;;-145.17;59.44
32759;BME280;19125;52.360;9.974;2024-02-14T02:57:51;87675.81;;;-145.17;60.00
32759;BME280;19125;52.360;9.974;2024-02-14T03:00:18;87735.38;;;-145.17;60.25
32759;BME280;19125;52.360;9.974;2024-02-14T03:02:46;87775.06;;;-145.17;60.52
32759;BME280;19125;52.360;9.974;2024-02-14T03:05:12;87810.81;;;-145.17;60.77
32759;BME280;19125;52.360;9.974;2024-02-14T03:07:44;87802.88;;;-145.17;60.90
32759;BME280;19125;52.360;9.974;2024-02-14T03:10:11;87921.97;;;-145.17;60.94
32759;BME280;19125;52.360;9.974;2024-02-14T03:12:37;87898.16;;;-145.17;61.28
32759;BME280;19125;52.360;9.974;2024-02-14T03:15:04;87933.88;;;-145.17;61.39
32759;BME280;19125;52.360;9.974;2024-02-14T03:17:30;87969.63;;;-145.17;61.62
32759;BME280;19125;52.360;9.974;2024-02-14T03:19:56;88037.13;;;-145.17;61.88
32759;BME280;19125;52.360;9.974;2024-02-14T03:22:21;88033.16;;;-145.17;61.97
32759;BME280;19125;52.360;9.974;2024-02-14T03:24:47;88116.53;;;-145.17;62.27
32759;BME280;19125;52.360;9.974;2024-02-14T03:27:13;88092.72;;;-145.17;62.97
32759;BME280;19125;52.360;9.974;2024-02-14T03:29:38;88150.28;;;-145.17;62.94
32759;BME280;19125;52.360;9.974;2024-02-14T03:32:05;88184.03;;;-145.17;63.17
32759;BME280;19125;52.360;9.974;2024-02-14T03:34:31;88231.69;;;-145.17;63.27
32759;BME280;19125;52.360;9.974;2024-02-14T03:36:59;88245.59;;;-145.17;63.63
32759;BME280;19125;52.360;9.974;2024-02-14T03:39:24;88291.25;;;-145.17;63.65
32759;BME280;19125;52.360;9.974;2024-02-14T03:41:50;88307.13;;;-145.17;63.82
32759;BME280;19125;52.360;9.974;2024-02-14T03:44:15;88281.31;;;-145.17;63.63
32759;BME280;19125;52.360;9.974;2024-02-14T03:46:40;88319.06;;;-145.17;63.69
32759;BME280;19125;52.360;9.974;2024-02-14T03:49:06;88346.84;;;-145.17;64.12
32759;BME280;19125;52.360;9.974;2024-02-14T03:51:31;88368.69;;;-145.17;64.28
32759;BME280;19125;52.360;9.974;2024-02-14T03:53:56;88336.91;;;-145.17;64.04
32759;BME280;19125;52.360;9.974;2024-02-14T03:56:25;88358.75;;;-145.17;64.37
32759;BME280;19125;52.360;9.974;2024-02-14T03:58:51;88398.47;;;-145.17;64.47
32759;BME280;19125;52.360;9.974;2024-02-14T04:01:16;88378.63;;;-145.17;64.59
32759;BME280;19125;52.360;9.974;2024-02-14T04:03:42;88412.38;;;-145.17;64.36
32759;BME280;19125;52.360;9.974;2024-02-14T04:06:07;88378.63;;;-145.17;64.98
32759;BME280;19125;52.360;9.974;2024-02-14T04:08:33;88402.44;;;-145.17;65.08
32759;BME280;19125;52.360;9.974;2024-02-14T04:10:58;88406.41;;;-145.17;65.08
32759;BME280;19125;52.360;9.974;2024-02-14T04:13:24;88398.47;;;-145.17;64.68
32759;BME280;19125;52.360;9.974;2024-02-14T04:15:49;88436.19;;;-145.17;65.15
32759;BME280;19125;52.360;9.974;2024-02-14T04:18:15;88386.56;;;-145.17;65.23
32759;BME280;19125;52.360;9.974;2024-02-14T04:20:43;88414.34;;;-145.17;65.31
32759;BME280;19125;52.360;9.974;2024-02-14T04:23:09;88424.28;;;-145.17;65.16
32759;BME280;19125;52.360;9.974;2024-02-14T04:25:35;88404.41;;;-145.17;64.96
32759;BME280;19125;52.360;9.974;2024-02-14T04:28:02;88384.56;;;-145.17;64.86
32759;BME280;19125;52.360;9.974;2024-02-14T04:30:28;88362.72;;;-145.17;65.17
32759;BME280;19125;52.360;9.974;2024-02-14T04:32:53;88340.88;;;-145.17;65.08
32759;BME280;19125;52.360;9.974;2024-02-14T04:35:22;88354.78;;;-145.17;64.82
32759;BME280;19125;52.360;9.974;2024-02-14T04:37:47;88364.72;;;-145.17;65.29
32759;BME280;19125;52.360;9.974;2024-02-14T04:40:14;88346.84;;;-145.17;64.82
32759;BME280;19125;52.360;9.974;2024-02-14T04:42:41;88378.63;;;-145.17;64.96
32759;BME280;19125;52.360;9.974;2024-02-14T04:45:06;88340.88;;;-145.17;64.96
32759;BME280;19125;52.360;9.974;2024-02-14T04:47:32;88388.53;;;-145.17;65.46
32759;BME280;19125;52.360;9.974;2024-02-14T04:49:58;88420.31;;;-145.17;65.62
32759;BME280;19125;52.360;9.974;2024-02-14T04:52:25;88398.47;;;-145.17;65.85
32759;BME280;19125;52.360;9.974;2024-02-14T04:54:50;88342.88;;;-145.17;65.80
32759;BME280;19125;52.360;9.974;2024-02-14T04:57:15;88362.72;;;-145.17;66.61
32759;BME280;19125;52.360;9.974;2024-02-14T04:59:41;88303.16;;;-145.17;66.91
32759;BME280;19125;52.360;9.974;2024-02-14T05:02:06;88271.41;;;-145.17;66.66
32759;BME280;19125;52.360;9.974;2024-02-14T05:04:32;88102.63;;;-145.17;67.10
32759;BME280;19125;52.360;9.974;2024-02-14T05:07:00;87914.03;;;-145.17;67.44
32759;BME280;19125;52.360;9.974;2024-02-14T05:09:25;87576.56;;;-145.17;67.65
32759;BME280;19125;52.360;9.974;2024-02-14T05:11:51;87022.78;;;-145.17;68.16
32759;BME280;19125;52.360;9.974;2024-02-14T05:14:16;86264.66;;;-145.17;68.55
32759;BME280;19125;52.360;9.974;2024-02-14T05:16:41;85230.91;;;-145.17;68.59
32759;BME280;19125;52.360;9.974;2024-02-14T05:19:07;83893.97;;;-145.17;68.79
32759;BME280;19125;52.360;9.974;2024-02-14T05:21:32;82073.75;;;-145.17;68.92
32759;BME280;19125;52.360;9.974;2024-02-14T05:23:57;79507.44;;;-145.17;69.30
32759;BME280;19125;52.360;9.974;2024-02-14T05:26:23;76222.16;;;-145.17;69.61
32759;BME280;19125;52.360;9.974;2024-02-14T05:28:48;72747.72;;;-145.17;69.86
32759;BME280;19125;52.360;9.974;2024-02-14T05:31:14;68891.00;;;-145.17;69.84
32759;BME280;19125;52.360;9.974;2024-02-14T05:33:41;65527.56;;;-145.17;70.03
32759;BME280;19125;52.360;9.974;2024-02-14T05:36:07;63001.44;;;-145.17;70.30
32759;BME280;19125;52.360;9.974;2024-02-14T05:38:34;61234.09;;;-145.17;70.50
32759;BME280;19125;52.360;9.974;2024-02-14T05:40:59;59215.22;;;-145.17;70.66
32759;BME280;19125;52.360;9.974;2024-02-14T05:43:25;57449.56;;;-145.17;70.54
32759;BME280;19125;52.360;9.974;2024-02-14T05:45:51;55684.69;;;-145.17;70.73
32759;BME280;19125;52.360;9.974;2024-02-14T05:48:16;54172.56;;;-145.17;70.92
32759;BME280;19125;52.360;9.974;2024-02-14T05:50:41;52661.03;;;-145.17;71.01
32759;BME280;19125;52.360;9.974;2024-02-14T05:53:07;51401.84;;;-145.17;71.09
32759;BME280;19125;52.360;9.974;2024-02-14T05:55:32;49891.34;;;-145.17;70.84
32759;BME280;19125;52.360;9.974;2024-02-14T05:57:58;48633.06;;;-145.17;71.05
32759;BME280;19125;52.360;9.974;2024-02-14T06:00:24;46872.09;;;-145.17;71.33
32759;BME280;19125;52.360;9.974;2024-02-14T06:02:50;45363.34;;;-145.17;71.76
32759;BME280;19125;52.360;9.974;2024-02-14T06:05:16;43855.16;;;-145.17;71.77
32759;BME280;19125;52.360;9.974;2024-02-14T06:07:44;42347.56;;;-145.17;71.56
32759;BME280;19125;52.360;9.974;2024-02-14T06:10:10;41342.81;;;-145.17;71.75
32759;BME280;19125;52.360;9.974;2024-02-14T06:12:36;40087.25;;;-145.17;71.56
32759;BME280;19125;52.360;9.974;2024-02-14T06:15:02;38581.06;;;-145.17;71.69
32759;BME280;19125;52.360;9.974;2024-02-14T06:17:27;37577.28;;;-145.17;72.12
32759;BME280;19125;52.360;9.974;2024-02-14T06:19:53;36322.91;;;-145.17;72.18
32759;BME280;19125;52.360;9.974;2024-02-14T06:22:20;35068.94;;;-145.17;72.22
32759;BME280;19125;52.360;9.974;2024-02-14T06:24:46;33815.38;;;-145.17;72.31
32759;BME280;19125;52.360;9.974;2024-02-14T06:27:14;32812.78;;;-145.17;72.09
32759;BME280;19125;52.360;9.974;2024-02-14T06:29:42;31559.94;;;-145.17;72.39
32759;BME280;19125;52.360;9.974;2024-02-14T06:32:07;30307.50;;;-145.17;73.00
32759;BME280;19125;52.360;9.974;2024-02-14T06:34:33;29305.81;;;-145.17;72.69
32759;BME280;19125;52.360;9.974;2024-02-14T06:36:58;28304.41;;;-145.17;72.96
32759;BME280;19125;52.360;9.974;2024-02-14T06:39:27;27303.25;;;-145.17;72.69
32759;BME280;19125;52.360;9.974;2024-02-14T06:41:52;26552.53;;;-145.17;72.88
32759;BME280;19125;52.360;9.974;2024-02-14T06:44:17;25802.00;;;-145.17;72.80
32759;BME280;19125;52.360;9.974;2024-02-14T06:46:43;25301.69;;;-145.17;73.01
32759;BME280;19125;52.360;9.974;2024-02-14T06:49:09;24551.38;;;-145.17;72.95
32759;BME280;19125;52.360;9.974;2024-02-14T06:51:34;24051.25;;;-145.17;73.00
32759;BME280;19125;52.360;9.974;2024-02-14T06:54:00;23551.19;;;-145.17;72.83
32759;BME280;19125;52.360;9.974;2024-02-14T06:56:25;22801.19;;;-145.17;73.09
32759;BME280;19125;52.360;9.974;2024-02-14T06:58:50;22051.38;;;-145.17;73.12
32759;BME280;19125;52.360;9.974;2024-02-14T07:01:19;21051.81;;;-145.17;73.37
32759;BME280;19125;52.360;9.974;2024-02-14T07:03:50;20302.31;;;-145.17;73.65
32759;BME280;19125;52.360;9.974;2024-02-14T07:06:16;19552.97;;;-145.17;73.72
32759;BME280;19125;52.360;9.974;2024-02-14T07:08:42;19053.47;;;-145.17;73.15
32759;BME280;19125;52.360;9.974;2024-02-14T07:11:08;18304.34;;;-145.17;73.60
32759;BME280;19125;52.360;9.974;2024-02-14T07:13:36;17555.38;;;-145.17;73.24
32759;BME280;19125;52.360;9.974;2024-02-14T07:16:05;16806.56;;;-145.17;74.05
32759;BME280;19125;52.360;9.974;2024-02-14T07:18:30;15808.34;;;-145.17;74.26
32759;BME280;19125;52.360;9.974;2024-02-14T07:20:55;14810.38;;;-145.17;73.81
32759;BME280;19125;52.360;9.974;2024-02-14T07:23:24;14311.50;;;-145.17;74.18
32759;BME280;19125;52.360;9.974;2024-02-14T07:25:49;13563.31;;;-145.17;73.78
32759;BME280;19125;52.360;9.974;2024-02-14T07:28:14;13064.59;;;-145.17;74.08
32759;BME280;19125;52.360;9.974;2024-02-14T07:30:40;12067.34;;;-145.17;74.38
32759;BME280;19125;52.360;9.974;2024-02-14T07:33:05;11319.56;;;-145.17;74.34
32759;BME280;19125;52.360;9.974;2024-02-14T07:35:31;10571.94;;;-145.17;74.64
32759;BME280;19125;52.360;9.974;2024-02-14T07:37:56;9824.47;;;-145.17;74.46
32759;BME280;19125;52.360;9.974;2024-02-14T07:40:22;9326.22;;;-145.17;74.88
32759;BME280;19125;52.360;9.974;2024-02-14T07:42:48;8828.06;;;-145.17;74.59
32759;BME280;19125;52.360;9.974;2024-02-14T07:45:14;8080.91;;;-145.17;75.06
32759;BME280;19125;52.360;9.974;2024-02-14T07:47:39;7582.91;;;-145.17;74.87
32759;BME280;19125;52.360;9.974;2024-02-14T07:50:06;7084.94;;;-145.17;74.94
32759;BME280;19125;52.360;9.974;2024-02-14T07:52:35;6338.13;;;-145.17;74.58
32759;BME280;19125;52.360;9.974;2024-02-14T07:55:01;5840.34;;;-145.17;74.90
32759;BME280;19125;52.360;9.974;2024-02-14T07:57:29;5342.63;;;-145.17;75.07
32759;BME280;19125;52.360;9.974;2024-02-14T07:59:55;4844.97;;;-145.17;75.48
32759;BME280;19125;52.360;9.974;2024-02-14T08:02:20;4347.34;;;-145.17;75.07
32759;BME280;19125;52.360;9.974;2024-02-14T08:04:46;3601.06;;;-145.17;75.83
32759;BME280;19125;52.360;9.974;2024-02-14T08:07:11;2854.94;;;-145.17;75.15
32759;BME280;19125;52.360;9.974;2024-02-14T08:09:36;2357.59;;;-145.17;75.60
32759;BME280;19125;52.360;9.974;2024-02-14T08:12:04;1611.72;;;-145.17;75.52
32759;BME280;19125;52.360;9.974;2024-02-14T08:14:30;1114.53;;;-145.17;75.95
32759;BME280;19125;52.360;9.974;2024-02-14T08:16:55;617.41;;;-145.17;75.62
32759;BME280;19125;52.360;9.974;2024-02-14T08:19:20;120.34;;;-145.17;75.73
32759;BME280;19125;52.360;9.974;2024-02-14T08:21:46;-128.16;;;-145.17;75.58
32759;BME280;19125;52.360;9.974;2024-02-14T08:24:11;-625.09;;;-145.17;75.84
32759;BME280;19125;52.360;9.974;2024-02-14T08:26:36;-873.56;;;-145.17;75.95
32759;BME280;19125;52.360;9.974;2024-02-14T08:29:02;-1122.00;;;-145.17;75.53
32759;BME280;19125;52.360;9.974;2024-02-14T08:31:29;-1370.41;;;-145.17;75.50
32759;BME280;19125;52.360;9.974;2024-02-14T08:33:57;-1618.84;;;-145.17;75.37
32759;BME280;19125;52.360;9.974;2024-02-14T08:36:26;-1618.84;;;-145.17;75.87
32759;BME280;19125;52.360;9.974;2024-02-14T08:38:55;-1867.22;;;-145.17;75.52
32759;BME280;19125;52.360;9.974;2024-02-14T08:41:20;-2363.94;;;-145.17;76.37
32759;BME280;19125;52.360;9.974;2024-02-14T08:43:48;-2612.28;;;-145.17;75.84
32759;BME280;19125;52.360;9.974;2024-02-14T08:46:13;-2860.63;;;-145.17;75.90
32759;BME280;19125;52.360;9.974;2024-02-14T08:48:39;-3108.94;;;-145.17;76.17
32759;BME280;19125;52.360;9.974;2024-02-14T08:51:11;-3357.22;;;-145.17;76.24
32759;BME280;19125;52.360;9.974;2024-02-14T08:53:37;-3357.22;;;-145.17;76.05
32759;BME280;19125;52.360;9.974;2024-02-14T08:56:03;-3605.50;;;-145.17;75.86
32759;BME280;19125;52.360;9.974;2024-02-14T08:58:28;-3605.50;;;-145.17;76.19
32759;BME280;19125;52.360;9.974;2024-02-14T09:00:53;-3853.78;;;-145.17;76.23
32759;BME280;19125;52.360;9.974;2024-02-14T09:03:19;-4102.00;;;-145.17;76.01
32759;BME280;19125;52.360;9.974;2024-02-14T09:05:45;-4350.25;;;-145.17;76.30
32759;BME280;19125;52.360;9.974;2024-02-14T09:08:11;-4598.47;;;-145.17;76.38
32759;BME280;19125;52.360;9.974;2024-02-14T09:10:37;-5094.84;;;-145.17;76.36
32759;BME280;19125;52.360;9.974;2024-02-14T09:13:03;-5591.16;;;-145.17;76.67
32759;BME280;19125;52.360;9.974;2024-02-14T09:15:29;-6087.41;;;-145.17;76.51
32759;BME280;19125;52.360;9.974;2024-02-14T09:17:56;-6583.59;;;-145.17;76.96
32759;BME280;19125;52.360;9.974;2024-02-14T09:20:22;-7079.72;;;-145.17;76.82
32759;BME280;19125;52.360;9.974;2024-02-14T09:22:48;-7575.78;;;-145.17;76.85
32759;BME280;19125;52.360;9.974;2024-02-14T09:25:13;-8071.78;;;-145.17;77.09
32759;BME280;19125;52.360;9.974;2024-02-14T09:27:39;-8815.66;;;-145.17;77.00
32759;BME280;19125;52.360;9.974;2024-02-14T09:30:06;-9311.50;;;-145.17;76.96
32759;BME280;19125;52.360;9.974;2024-02-14T09:32:32;-9559.38;;;-145.17;77.38
32759;BME280;19125;52.360;9.974;2024-02-14T09:35:00;-10055.13;;;-145.17;77.03
32759;BME280;19125;52.360;9.974;2024-02-14T09:37:27;-10550.78;;;-145.17;77.23
32759;BME280;19125;52.360;9.974;2024-02-14T09:39:53;-10798.59;;;-145.17;77.41
32759;BME280;19125;52.360;9.974;2024-02-14T09:42:32;-11046.41;;;-145.17;77.75
32759;BME280;19125;52.360;9.974;2024-02-14T09:45:00;-11294.19;;;-145.17;77.38
32759;BME280;19125;52.360;9.974;2024-02-14T09:47:28;-11541.97;;;-145.17;77.91
32759;BME280;19125;52.360;9.974;2024-02-14T09:49:58;-11789.69;;;-145.17;77.59
32759;BME280;19125;52.360;9.974;2024-02-14T09:52:24;-11789.69;;;-145.17;77.68
32759;BME280;19125;52.360;9.974;2024-02-14T09:54:51;-12037.44;;;-145.17;77.50
32759;BME280;19125;52.360;9.974;2024-02-14T09:57:17;-12285.16;;;-145.17;77.86
32759;BME280;19125;52.360;9.974;2024-02-14T09:59:44;-12780.53;;;-145.17;78.02
32759;BME280;19125;52.360;9.974;2024-02-14T10:02:09;-13028.22;;;-145.17;77.67
32759;BME280;19125;52.360;9.974;2024-02-14T10:04:35;-13275.88;;;-145.17;77.97
32759;BME280;19125;52.360;9.974;2024-02-14T10:07:03;-13523.50;;;-145.17;77.84
32759;BME280;19125;52.360;9.974;2024-02-14T10:09:30;-13771.13;;;-145.17;78.32
32759;BME280;19125;52.360;9.974;2024-02-14T10:11:55;-13771.13;;;-145.17;77.93
32759;BME280;19125;52.360;9.974;2024-02-14T10:14:23;-14018.72;;;-145.17;77.71
32759;BME280;19125;52.360;9.974;2024-02-14T10:16:48;-14018.72;;;-145.17;78.00
32759;BME280;19125;52.360;9.974;2024-02-14T10:19:17;-14018.72;;;-145.17;77.95
32759;BME280;19125;52.360;9.974;2024-02-14T10:21:43;-14018.72;;;-145.17;77.96
32759;BME280;19125;52.360;9.974;2024-02-14T10:24:08;-14018.72;;;-145.17;77.77
32759;BME280;19125;52.360;9.974;2024-02-14T10:26:38;-13523.50;;;-145.17;77.72
32759;BME280;19125;52.360;9.974;2024-02-14T10:29:05;-13275.88;;;-145.17;77.69
32759;BME280;19125;52.360;9.974;2024-02-14T10:31:31;-13028.22;;;-145.17;77.48
32759;BME280;19125;52.360;9.974;2024-02-14T10:34:00;-12780.53;;;-145.17;77.22
32759;BME280;19125;52.360;9.974;2024-02-14T10:36:26;-12532.84;;;-145.17;77.33
32759;BME280;19125;52.360;9.974;2024-02-14T10:38:52;-12532.84;;;-145.17;77.45
32759;BME280;19125;52.360;9.974;2024-02-14T10:41:18;-12285.16;;;-145.17;77.09
32759;BME280;19125;52.360;9.974;2024-02-14T10:43:44;-12037.44;;;-145.17;76.85
32759;BME280;19125;52.360;9.974;2024-02-14T10:46:31;-11789.69;;;-145.17;77.22
32759;BME280;19125;52.360;9.974;2024-02-14T10:49:02;-11789.69;;;-145.17;76.81
32759;BME280;19125;52.360;9.974;2024-02-14T10:51:30;-11541.97;;;-145.17;76.99
32759;BME280;19125;52.360;9.974;2024-02-14T10:53:57;-11294.19;;;-145.17;76.72
32759;BME280;19125;52.360;9.974;2024-02-14T10:56:26;-10798.59;;;-145.17;76.45
32759;BME280;19125;52.360;9.974;2024-02-14T10:58:56;-10055.13;;;-145.17;76.20
32759;BME280;19125;52.360;9.974;2024-02-14T11:01:23;-9311.50;;;-145.17;76.22
32759;BME280;19125;52.360;9.974;2024-02-14T11:03:50;-8815.66;;;-145.17;75.85
32759;BME280;19125;52.360;9.974;2024-02-14T11:06:16;-8071.78;;;-145.17;76.04
32759;BME280;19125;52.360;9.974;2024-02-14T11:09:03;-7575.78;;;-145.17;75.83
32759;BME280;19125;52.360;9.974;2024-02-14T11:11:33;-7079.72;;;-145.17;75.94
32759;BME280;19125;52.360;9.974;2024-02-14T11:13:59;-7079.72;;;-145.17;75.70
32759;BME280;19125;52.360;9.974;2024-02-14T11:16:28;-7079.72;;;-145.17;75.93
32759;BME280;19125;52.360;9.974;2024-02-14T11:19:14;-7327.75;;;-145.17;76.04
32759;BME280;19125;52.360;9.974;2024-02-14T11:21:44;-7327.75;;;-145.17;75.92
32759;BME280;19125;52.360;9.974;2024-02-14T11:24:11;-7575.78;;;-145.17;75.89
32759;BME280;19125;52.360;9.974;2024-02-14T11:26:46;-7327.75;;;-145.17;75.86
32759;BME280;19125;52.360;9.974;2024-02-14T11:29:15;-7327.75;;;-145.17;75.73
32759;BME280;19125;52.360;9.974;2024-02-14T11:31:47;-7327.75;;;-145.17;75.75
32759;BME280;19125;52.360;9.974;2024-02-14T11:34:16;-7079.72;;;-145.17;75.80
32759;BME280;19125;52.360;9.974;2024-02-14T11:36:42;-7079.72;;;-145.17;75.75
32759;BME280;19125;52.360;9.974;2024-02-14T11:39:08;-7079.72;;;-145.17;76.07
32759;BME280;19125;52.360;9.974;2024-02-14T11:41:34;-7079.72;;;-145.17;75.79
32759;BME280;19125;52.360;9.974;2024-02-14T11:44:04;-7327.75;;;-145.17;75.91
32759;BME280;19125;52.360;9.974;2024-02-14T11:46:33;-7079.72;;;-145.17;75.80
32759;BME280;19125;52.360;9.974;2024-02-14T11:49:00;-6583.59;;;-145.17;75.56
32759;BME280;19125;52.360;9.974;2024-02-14T11:51:38;-5839.28;;;-145.17;75.32
32759;BME280;19125;52.360;9.974;2024-02-14T11:54:05;-4846.66;;;-145.17;75.02
32759;BME280;19125;52.360;9.974;2024-02-14T11:56:40;-3605.50;;;-145.17;74.63
32759;BME280;19125;52.360;9.974;2024-02-14T11:59:07;-2115.59;;;-145.17;74.43
32759;BME280;19125;52.360;9.974;2024-02-14T12:01:36;-376.63;;;-145.17;74.08
32759;BME280;19125;52.360;9.974;2024-02-14T12:04:03;1363.13;;;-145.17;73.88
32759;BME280;19125;52.360;9.974;2024-02-14T12:06:30;3103.63;;;-145.17;73.64
32759;BME280;19125;52.360;9.974;2024-02-14T12:09:03;5093.78;;;-145.17;73.33
32759;BME280;19125;52.360;9.974;2024-02-14T12:11:35;6587.06;;;-145.17;72.86
32759;BME280;19125;52.360;9.974;2024-02-14T12:14:08;8828.06;;;-145.17;72.65
32759;BME280;19125;52.360;9.974;2024-02-14T12:16:37;11319.56;;;-145.17;72.47
32759;BME280;19125;52.360;9.974;2024-02-14T12:19:09;13563.31;;;-145.17;72.16
32759;BME280;19125;52.360;9.974;2024-02-14T12:21:39;15808.34;;;-145.17;72.06
32759;BME280;19125;52.360;9.974;2024-02-14T12:24:09;17555.38;;;-145.17;71.89
32759;BME280;19125;52.360;9.974;2024-02-14T12:26:36;19053.47;;;-145.17;71.70
32759;BME280;19125;52.360;9.974;2024-02-14T12:29:02;20552.13;;;-145.17;71.77
32759;BME280;19125;52.360;9.974;2024-02-14T12:31:29;21551.56;;;-145.17;71.45
32759;BME280;19125;52.360;9.974;2024-02-14T12:33:56;22301.28;;;-145.17;71.61
32759;BME280;19125;52.360;9.974;2024-02-14T12:36:24;22801.19;;;-145.17;71.60